sensor_id;sensor_type;location;lat;lon;timestamp;P1;durP1;ratioP1;P2;durP2;ratioP2
51312;SDS011;37397;53.226;10.400;2023-04-01T00:01:00;5.53;;;2.55;;
51312;SDS011;37397;53.226;10.400;2023-04-01T00:03:27;8.45;;;3.10;;
51312;SDS011;37397;53.226;10.400;2023-04-01T00:05:55;5.57;;;2.65;;
51312;SDS011;37397;53.226;10.400;2023-04-01T00:08:26;7.03;;;2.50;;
51312;SDS011;37397;53.226;10.400;2023-04-01T00:10:53;8.18;;;3.00;;
51312;SDS011;37397;53.226;10.400;2023-04-01T00:13:20;4.55;;;2.30;;
51312;SDS011;37397;53.226;10.400;2023-04-01T00:15:47;5.68;;;2.42;;
51312;SDS011;37397;53.226;10.400;2023-04-01T00:18:13;8.40;;;2.70;;
51312;SDS011;37397;53.226;10.400;2023-04-01T00:20:47;5.50;;;2.55;;
51312;SDS011;37397;53.226;10.400;2023-04-01T00:23:15;7.70;;;2.80;;
51312;SDS011;37397;53.226;10.400;2023-04-01T00:25:43;6.53;;;2.63;;
51312;SDS011;37397;53.226;10.400;2023-04-01T00:28:11;7.70;;;2.80;;
51312;SDS011;37397;53.226;10.400;2023-04-01T00:30:37;5.35;;;2.90;;
51312;SDS011;37397;53.226;10.400;2023-04-01T00:33:04;7.22;;;2.70;;
51312;SDS011;37397;53.226;10.400;2023-04-01T00:35:31;7.18;;;2.63;;
51312;SDS011;37397;53.226;10.400;2023-04-01T00:37:58;5.65;;;2.72;;
51312;SDS011;37397;53.226;10.400;2023-04-01T00:40:29;6.50;;;2.30;;
51312;SDS011;37397;53.226;10.400;2023-04-01T00:42:58;7.72;;;2.92;;
51312;SDS011;37397;53.226;10.400;2023-04-01T00:45:32;7.75;;;2.80;;
51312;SDS011;37397;53.226;10.400;2023-04-01T00:48:04;6.80;;;2.42;;
51312;SDS011;37397;53.226;10.400;2023-04-01T00:50:35;8.43;;;2.80;;
51312;SDS011;37397;53.226;10.400;2023-04-01T00:53:05;6.15;;;2.50;;
51312;SDS011;37397;53.226;10.400;2023-04-01T00:55:33;6.38;;;2.67;;
51312;SDS011;37397;53.226;10.400;2023-04-01T00:58:05;7.57;;;3.42;;
51312;SDS011;37397;53.226;10.400;2023-04-01T01:00:36;8.73;;;2.78;;
51312;SDS011;37397;53.226;10.400;2023-04-01T01:03:04;5.43;;;2.58;;
51312;SDS011;37397;53.226;10.400;2023-04-01T01:05:38;7.93;;;2.75;;
51312;SDS011;37397;53.226;10.400;2023-04-01T01:08:27;5.78;;;2.50;;
51312;SDS011;37397;53.226;10.400;2023-04-01T01:11:10;6.35;;;3.03;;
51312;SDS011;37397;53.226;10.400;2023-04-01T01:13:48;5.25;;;2.30;;
51312;SDS011;37397;53.226;10.400;2023-04-01T01:16:25;6.13;;;2.58;;
51312;SDS011;37397;53.226;10.400;2023-04-01T01:19:08;6.53;;;2.70;;
51312;SDS011;37397;53.226;10.400;2023-04-01T01:27:17;5.07;;;2.40;;
51312;SDS011;37397;53.226;10.400;2023-04-01T01:32:38;4.35;;;2.38;;
51312;SDS011;37397;53.226;10.400;2023-04-01T01:37:54;6.60;;;2.65;;
51312;SDS011;37397;53.226;10.400;2023-04-01T01:40:25;7.03;;;2.60;;
51312;SDS011;37397;53.226;10.400;2023-04-01T01:42:54;7.18;;;2.20;;
51312;SDS011;37397;53.226;10.400;2023-04-01T01:45:26;8.30;;;2.30;;
51312;SDS011;37397;53.226;10.400;2023-04-01T01:47:53;7.38;;;2.97;;
51312;SDS011;37397;53.226;10.400;2023-04-01T01:50:22;7.93;;;2.90;;
51312;SDS011;37397;53.226;10.400;2023-04-01T01:52:50;7.15;;;2.90;;
51312;SDS011;37397;53.226;10.400;2023-04-01T01:55:27;6.28;;;2.20;;
51312;SDS011;37397;53.226;10.400;2023-04-01T01:58:08;5.35;;;2.70;;
51312;SDS011;37397;53.226;10.400;2023-04-01T02:00:49;5.88;;;2.30;;
51312;SDS011;37397;53.226;10.400;2023-04-01T02:03:19;6.65;;;2.80;;
51312;SDS011;37397;53.226;10.400;2023-04-01T02:05:50;6.45;;;2.60;;
51312;SDS011;37397;53.226;10.400;2023-04-01T02:08:25;6.15;;;2.30;;
51312;SDS011;37397;53.226;10.400;2023-04-01T02:10:58;5.68;;;2.60;;
51312;SDS011;37397;53.226;10.400;2023-04-01T02:13:35;7.88;;;2.60;;
51312;SDS011;37397;53.226;10.400;2023-04-01T02:16:10;6.90;;;2.53;;
51312;SDS011;37397;53.226;10.400;2023-04-01T02:18:41;7.93;;;2.95;;
51312;SDS011;37397;53.226;10.400;2023-04-01T02:21:11;4.80;;;2.40;;
51312;SDS011;37397;53.226;10.400;2023-04-01T02:23:38;7.07;;;2.88;;
51312;SDS011;37397;53.226;10.400;2023-04-01T02:26:06;5.47;;;2.45;;
51312;SDS011;37397;53.226;10.400;2023-04-01T02:28:35;5.95;;;2.60;;
51312;SDS011;37397;53.226;10.400;2023-04-01T02:31:04;5.22;;;2.50;;
51312;SDS011;37397;53.226;10.400;2023-04-01T02:33:32;6.25;;;2.63;;
51312;SDS011;37397;53.226;10.400;2023-04-01T02:35:59;6.85;;;2.97;;
51312;SDS011;37397;53.226;10.400;2023-04-01T02:38:26;7.05;;;2.63;;
51312;SDS011;37397;53.226;10.400;2023-04-01T02:40:56;5.85;;;2.75;;
51312;SDS011;37397;53.226;10.400;2023-04-01T02:43:25;6.00;;;2.60;;
51312;SDS011;37397;53.226;10.400;2023-04-01T02:45:52;8.23;;;2.80;;
51312;SDS011;37397;53.226;10.400;2023-04-01T02:48:18;6.72;;;2.72;;
51312;SDS011;37397;53.226;10.400;2023-04-01T02:50:45;6.88;;;2.78;;
51312;SDS011;37397;53.226;10.400;2023-04-01T02:53:12;4.72;;;2.30;;
51312;SDS011;37397;53.226;10.400;2023-04-01T02:55:38;5.25;;;2.22;;
51312;SDS011;37397;53.226;10.400;2023-04-01T02:58:05;8.05;;;2.60;;
51312;SDS011;37397;53.226;10.400;2023-04-01T03:00:32;6.47;;;2.47;;
51312;SDS011;37397;53.226;10.400;2023-04-01T03:02:58;8.73;;;2.97;;
51312;SDS011;37397;53.226;10.400;2023-04-01T03:05:25;7.05;;;2.60;;
51312;SDS011;37397;53.226;10.400;2023-04-01T03:07:51;6.32;;;2.60;;
51312;SDS011;37397;53.226;10.400;2023-04-01T03:10:19;4.93;;;2.33;;
51312;SDS011;37397;53.226;10.400;2023-04-01T03:12:46;6.78;;;2.50;;
51312;SDS011;37397;53.226;10.400;2023-04-01T03:15:13;9.27;;;2.70;;
51312;SDS011;37397;53.226;10.400;2023-04-01T03:17:41;10.23;;;2.78;;
51312;SDS011;37397;53.226;10.400;2023-04-01T03:20:10;5.65;;;2.50;;
51312;SDS011;37397;53.226;10.400;2023-04-01T03:22:37;6.90;;;2.58;;
51312;SDS011;37397;53.226;10.400;2023-04-01T03:25:07;5.70;;;2.50;;
51312;SDS011;37397;53.226;10.400;2023-04-01T03:27:36;5.25;;;2.60;;
51312;SDS011;37397;53.226;10.400;2023-04-01T03:30:03;7.20;;;2.60;;
51312;SDS011;37397;53.226;10.400;2023-04-01T03:32:37;9.20;;;2.92;;
51312;SDS011;37397;53.226;10.400;2023-04-01T03:35:04;8.50;;;2.80;;
51312;SDS011;37397;53.226;10.400;2023-04-01T03:37:31;7.13;;;2.60;;
51312;SDS011;37397;53.226;10.400;2023-04-01T03:39:58;6.53;;;2.10;;
51312;SDS011;37397;53.226;10.400;2023-04-01T03:42:24;6.78;;;2.75;;
51312;SDS011;37397;53.226;10.400;2023-04-01T03:44:52;4.60;;;2.20;;
51312;SDS011;37397;53.226;10.400;2023-04-01T03:47:19;6.60;;;2.53;;
51312;SDS011;37397;53.226;10.400;2023-04-01T03:49:45;8.32;;;2.60;;
51312;SDS011;37397;53.226;10.400;2023-04-01T03:52:12;7.10;;;2.75;;
51312;SDS011;37397;53.226;10.400;2023-04-01T03:54:38;7.60;;;2.55;;
51312;SDS011;37397;53.226;10.400;2023-04-01T03:57:05;6.50;;;2.38;;
51312;SDS011;37397;53.226;10.400;2023-04-01T03:59:34;7.22;;;2.67;;
51312;SDS011;37397;53.226;10.400;2023-04-01T04:02:01;4.30;;;2.10;;
51312;SDS011;37397;53.226;10.400;2023-04-01T04:04:28;6.22;;;2.45;;
51312;SDS011;37397;53.226;10.400;2023-04-01T04:06:55;5.97;;;2.50;;
51312;SDS011;37397;53.226;10.400;2023-04-01T04:09:23;7.00;;;2.83;;
51312;SDS011;37397;53.226;10.400;2023-04-01T04:11:50;8.70;;;2.47;;
51312;SDS011;37397;53.226;10.400;2023-04-01T04:14:16;7.15;;;2.78;;
51312;SDS011;37397;53.226;10.400;2023-04-01T04:16:44;6.20;;;3.05;;
51312;SDS011;37397;53.226;10.400;2023-04-01T04:19:11;6.30;;;2.50;;
51312;SDS011;37397;53.226;10.400;2023-04-01T04:21:37;6.40;;;2.53;;
51312;SDS011;37397;53.226;10.400;2023-04-01T04:24:06;6.80;;;2.53;;
51312;SDS011;37397;53.226;10.400;2023-04-01T04:26:56;8.20;;;2.70;;
51312;SDS011;37397;53.226;10.400;2023-04-01T04:29:22;8.40;;;2.63;;
51312;SDS011;37397;53.226;10.400;2023-04-01T04:31:49;6.90;;;2.60;;
51312;SDS011;37397;53.226;10.400;2023-04-01T04:34:17;5.80;;;2.53;;
51312;SDS011;37397;53.226;10.400;2023-04-01T04:36:44;7.22;;;2.70;;
51312;SDS011;37397;53.226;10.400;2023-04-01T04:39:12;6.78;;;2.60;;
51312;SDS011;37397;53.226;10.400;2023-04-01T04:41:40;6.72;;;2.50;;
51312;SDS011;37397;53.226;10.400;2023-04-01T04:44:07;6.43;;;2.70;;
51312;SDS011;37397;53.226;10.400;2023-04-01T04:46:34;8.27;;;2.78;;
51312;SDS011;37397;53.226;10.400;2023-04-01T04:49:11;7.03;;;2.72;;
51312;SDS011;37397;53.226;10.400;2023-04-01T04:51:38;8.23;;;2.85;;
51312;SDS011;37397;53.226;10.400;2023-04-01T04:54:05;6.80;;;2.80;;
51312;SDS011;37397;53.226;10.400;2023-04-01T04:56:48;7.03;;;2.95;;
51312;SDS011;37397;53.226;10.400;2023-04-01T04:59:14;7.50;;;2.63;;
51312;SDS011;37397;53.226;10.400;2023-04-01T05:01:48;7.20;;;3.05;;
51312;SDS011;37397;53.226;10.400;2023-04-01T05:04:14;4.65;;;2.55;;
51312;SDS011;37397;53.226;10.400;2023-04-01T05:06:42;6.97;;;2.80;;
51312;SDS011;37397;53.226;10.400;2023-04-01T05:09:11;6.60;;;2.67;;
51312;SDS011;37397;53.226;10.400;2023-04-01T05:11:38;7.03;;;3.00;;
51312;SDS011;37397;53.226;10.400;2023-04-01T05:14:05;8.32;;;2.70;;
51312;SDS011;37397;53.226;10.400;2023-04-01T05:16:32;5.70;;;2.70;;
51312;SDS011;37397;53.226;10.400;2023-04-01T05:19:01;6.40;;;2.72;;
51312;SDS011;37397;53.226;10.400;2023-04-01T05:21:28;5.72;;;2.40;;
51312;SDS011;37397;53.226;10.400;2023-04-01T05:23:55;8.38;;;2.90;;
51312;SDS011;37397;53.226;10.400;2023-04-01T05:26:23;9.55;;;3.13;;
51312;SDS011;37397;53.226;10.400;2023-04-01T05:28:50;6.85;;;2.70;;
51312;SDS011;37397;53.226;10.400;2023-04-01T05:31:16;8.10;;;3.20;;
51312;SDS011;37397;53.226;10.400;2023-04-01T05:33:45;6.90;;;2.83;;
51312;SDS011;37397;53.226;10.400;2023-04-01T05:36:13;6.90;;;2.55;;
51312;SDS011;37397;53.226;10.400;2023-04-01T05:38:42;6.15;;;2.67;;
51312;SDS011;37397;53.226;10.400;2023-04-01T05:41:11;8.65;;;2.88;;
51312;SDS011;37397;53.226;10.400;2023-04-01T05:43:41;8.50;;;3.30;;
51312;SDS011;37397;53.226;10.400;2023-04-01T05:46:31;6.68;;;2.83;;
51312;SDS011;37397;53.226;10.400;2023-04-01T05:49:07;7.53;;;3.17;;
51312;SDS011;37397;53.226;10.400;2023-04-01T05:51:34;8.35;;;3.17;;
51312;SDS011;37397;53.226;10.400;2023-04-01T05:54:01;7.20;;;2.63;;
51312;SDS011;37397;53.226;10.400;2023-04-01T05:56:27;8.98;;;3.05;;
51312;SDS011;37397;53.226;10.400;2023-04-01T05:58:54;5.85;;;2.92;;
51312;SDS011;37397;53.226;10.400;2023-04-01T06:01:22;8.55;;;2.90;;
51312;SDS011;37397;53.226;10.400;2023-04-01T06:03:49;5.82;;;2.72;;
51312;SDS011;37397;53.226;10.400;2023-04-01T06:06:20;7.60;;;2.83;;
51312;SDS011;37397;53.226;10.400;2023-04-01T06:08:49;8.05;;;3.05;;
51312;SDS011;37397;53.226;10.400;2023-04-01T06:11:24;6.78;;;3.03;;
51312;SDS011;37397;53.226;10.400;2023-04-01T06:16:45;8.00;;;3.40;;
51312;SDS011;37397;53.226;10.400;2023-04-01T06:22:12;8.07;;;3.30;;
51312;SDS011;37397;53.226;10.400;2023-04-01T06:27:50;6.47;;;2.97;;
51312;SDS011;37397;53.226;10.400;2023-04-01T06:33:06;9.77;;;3.40;;
51312;SDS011;37397;53.226;10.400;2023-04-01T06:41:22;7.90;;;2.88;;
51312;SDS011;37397;53.226;10.400;2023-04-01T06:47:12;6.07;;;2.78;;
51312;SDS011;37397;53.226;10.400;2023-04-01T06:56:22;8.45;;;3.05;;
51312;SDS011;37397;53.226;10.400;2023-04-01T07:01:35;6.10;;;3.10;;
51312;SDS011;37397;53.226;10.400;2023-04-01T07:04:14;7.80;;;3.13;;
51312;SDS011;37397;53.226;10.400;2023-04-01T07:06:56;5.35;;;3.00;;
51312;SDS011;37397;53.226;10.400;2023-04-01T07:09:32;7.40;;;3.15;;
51312;SDS011;37397;53.226;10.400;2023-04-01T07:12:23;5.00;;;2.90;;
51312;SDS011;37397;53.226;10.400;2023-04-01T07:15:15;5.28;;;2.63;;
51312;SDS011;37397;53.226;10.400;2023-04-01T07:17:47;5.07;;;2.40;;
51312;SDS011;37397;53.226;10.400;2023-04-01T07:23:22;2.63;;;1.80;;
51312;SDS011;37397;53.226;10.400;2023-04-01T07:26:20;2.80;;;1.63;;
51312;SDS011;37397;53.226;10.400;2023-04-01T07:29:11;2.10;;;1.52;;
51312;SDS011;37397;53.226;10.400;2023-04-01T07:37:30;1.95;;;1.20;;
51312;SDS011;37397;53.226;10.400;2023-04-01T07:49:16;1.70;;;1.40;;
51312;SDS011;37397;53.226;10.400;2023-04-01T07:54:32;1.55;;;1.10;;
51312;SDS011;37397;53.226;10.400;2023-04-01T07:57:02;2.05;;;1.30;;
51312;SDS011;37397;53.226;10.400;2023-04-01T08:10:57;1.45;;;0.90;;
51312;SDS011;37397;53.226;10.400;2023-04-01T08:14:07;1.48;;;1.20;;
51312;SDS011;37397;53.226;10.400;2023-04-01T08:22:41;0.80;;;0.80;;
51312;SDS011;37397;53.226;10.400;2023-04-01T08:25:25;0.80;;;0.80;;
51312;SDS011;37397;53.226;10.400;2023-04-01T08:28:03;0.90;;;0.90;;
51312;SDS011;37397;53.226;10.400;2023-04-01T08:30:52;1.23;;;1.13;;
51312;SDS011;37397;53.226;10.400;2023-04-01T08:33:26;2.20;;;1.00;;
51312;SDS011;37397;53.226;10.400;2023-04-01T08:36:08;0.80;;;0.80;;
51312;SDS011;37397;53.226;10.400;2023-04-01T08:38:46;1.17;;;0.98;;
51312;SDS011;37397;53.226;10.400;2023-04-01T09:08:43;2.15;;;0.95;;
51312;SDS011;37397;53.226;10.400;2023-04-01T09:11:05;1.00;;;0.90;;
51312;SDS011;37397;53.226;10.400;2023-04-01T09:14:37;1.65;;;1.15;;
51312;SDS011;37397;53.226;10.400;2023-04-01T09:28:55;1.02;;;0.98;;
51312;SDS011;37397;53.226;10.400;2023-04-01T09:31:51;1.20;;;1.10;;
51312;SDS011;37397;53.226;10.400;2023-04-01T09:34:37;1.13;;;1.00;;
51312;SDS011;37397;53.226;10.400;2023-04-01T09:37:21;1.00;;;0.82;;
51312;SDS011;37397;53.226;10.400;2023-04-01T09:40:21;1.02;;;0.95;;
51312;SDS011;37397;53.226;10.400;2023-04-01T09:54:33;1.25;;;1.13;;
51312;SDS011;37397;53.226;10.400;2023-04-01T10:06:26;2.03;;;1.20;;
51312;SDS011;37397;53.226;10.400;2023-04-01T10:12:30;1.25;;;1.15;;
51312;SDS011;37397;53.226;10.400;2023-04-01T10:17:49;3.50;;;1.40;;
51312;SDS011;37397;53.226;10.400;2023-04-01T10:26:12;3.50;;;1.50;;
51312;SDS011;37397;53.226;10.400;2023-04-01T10:29:19;1.60;;;1.05;;
51312;SDS011;37397;53.226;10.400;2023-04-01T10:37:33;1.42;;;1.27;;
51312;SDS011;37397;53.226;10.400;2023-04-01T10:43:50;2.15;;;1.40;;
51312;SDS011;37397;53.226;10.400;2023-04-01T10:46:56;2.47;;;1.25;;
51312;SDS011;37397;53.226;10.400;2023-04-01T10:55:31;2.20;;;1.27;;
51312;SDS011;37397;53.226;10.400;2023-04-01T11:14:09;2.40;;;1.15;;
51312;SDS011;37397;53.226;10.400;2023-04-01T11:22:42;1.10;;;1.00;;
51312;SDS011;37397;53.226;10.400;2023-04-01T11:40:20;1.70;;;1.35;;
51312;SDS011;37397;53.226;10.400;2023-04-01T11:43:29;1.20;;;1.10;;
51312;SDS011;37397;53.226;10.400;2023-04-01T11:46:33;1.67;;;1.27;;
51312;SDS011;37397;53.226;10.400;2023-04-01T11:58:03;2.15;;;1.10;;
51312;SDS011;37397;53.226;10.400;2023-04-01T12:01:30;1.55;;;1.17;;
51312;SDS011;37397;53.226;10.400;2023-04-01T12:06:26;1.70;;;1.08;;
51312;SDS011;37397;53.226;10.400;2023-04-01T12:12:17;1.02;;;0.90;;
51312;SDS011;37397;53.226;10.400;2023-04-01T12:17:50;1.10;;;0.98;;
51312;SDS011;37397;53.226;10.400;2023-04-01T12:20:42;1.73;;;1.20;;
51312;SDS011;37397;53.226;10.400;2023-04-01T12:23:21;1.25;;;1.15;;
51312;SDS011;37397;53.226;10.400;2023-04-01T12:34:21;1.50;;;1.27;;
51312;SDS011;37397;53.226;10.400;2023-04-01T12:39:49;3.03;;;1.60;;
51312;SDS011;37397;53.226;10.400;2023-04-01T12:45:00;2.40;;;1.55;;
51312;SDS011;37397;53.226;10.400;2023-04-01T12:47:47;2.65;;;1.50;;
51312;SDS011;37397;53.226;10.400;2023-04-01T12:53:17;1.75;;;1.35;;
51312;SDS011;37397;53.226;10.400;2023-04-01T12:55:55;2.50;;;1.67;;
51312;SDS011;37397;53.226;10.400;2023-04-01T13:01:36;3.83;;;2.10;;
51312;SDS011;37397;53.226;10.400;2023-04-01T13:15:14;4.30;;;2.15;;
51312;SDS011;37397;53.226;10.400;2023-04-01T13:20:48;3.88;;;2.13;;
51312;SDS011;37397;53.226;10.400;2023-04-01T13:23:35;2.70;;;1.95;;
51312;SDS011;37397;53.226;10.400;2023-04-01T13:26:35;3.22;;;2.13;;
51312;SDS011;37397;53.226;10.400;2023-04-01T13:29:16;3.85;;;2.30;;
51312;SDS011;37397;53.226;10.400;2023-04-01T13:32:03;3.92;;;2.22;;
51312;SDS011;37397;53.226;10.400;2023-04-01T13:43:10;5.38;;;2.63;;
51312;SDS011;37397;53.226;10.400;2023-04-01T13:48:25;6.93;;;2.83;;
51312;SDS011;37397;53.226;10.400;2023-04-01T13:51:16;4.60;;;2.58;;
51312;SDS011;37397;53.226;10.400;2023-04-01T13:54:00;3.42;;;2.40;;
51312;SDS011;37397;53.226;10.400;2023-04-01T13:56:32;4.68;;;2.60;;
51312;SDS011;37397;53.226;10.400;2023-04-01T14:13:06;3.78;;;2.33;;
51312;SDS011;37397;53.226;10.400;2023-04-01T14:18:47;5.80;;;2.80;;
51312;SDS011;37397;53.226;10.400;2023-04-01T14:21:43;4.28;;;2.40;;
51312;SDS011;37397;53.226;10.400;2023-04-01T14:27:01;4.97;;;2.72;;
51312;SDS011;37397;53.226;10.400;2023-04-01T14:30:04;5.20;;;2.60;;
51312;SDS011;37397;53.226;10.400;2023-04-01T14:35:26;5.65;;;2.78;;
51312;SDS011;37397;53.226;10.400;2023-04-01T14:47:02;5.70;;;3.03;;
51312;SDS011;37397;53.226;10.400;2023-04-01T14:49:49;7.13;;;2.88;;
51312;SDS011;37397;53.226;10.400;2023-04-01T14:52:30;5.55;;;2.70;;
51312;SDS011;37397;53.226;10.400;2023-04-01T14:55:00;6.75;;;2.85;;
51312;SDS011;37397;53.226;10.400;2023-04-01T14:57:37;7.20;;;3.08;;
51312;SDS011;37397;53.226;10.400;2023-04-01T15:03:06;6.65;;;2.97;;
51312;SDS011;37397;53.226;10.400;2023-04-01T15:05:32;8.02;;;3.15;;
51312;SDS011;37397;53.226;10.400;2023-04-01T15:10:58;5.78;;;2.78;;
51312;SDS011;37397;53.226;10.400;2023-04-01T15:16:27;6.05;;;2.90;;
51312;SDS011;37397;53.226;10.400;2023-04-01T15:19:15;6.32;;;2.92;;
51312;SDS011;37397;53.226;10.400;2023-04-01T15:22:04;6.38;;;2.92;;
51312;SDS011;37397;53.226;10.400;2023-04-01T15:25:05;7.70;;;3.55;;
51312;SDS011;37397;53.226;10.400;2023-04-01T15:28:23;6.88;;;3.13;;
51312;SDS011;37397;53.226;10.400;2023-04-01T15:31:04;6.88;;;3.22;;
51312;SDS011;37397;53.226;10.400;2023-04-01T15:39:31;5.97;;;3.40;;
51312;SDS011;37397;53.226;10.400;2023-04-01T15:42:18;7.03;;;3.40;;
51312;SDS011;37397;53.226;10.400;2023-04-01T15:50:11;6.65;;;3.17;;
51312;SDS011;37397;53.226;10.400;2023-04-01T15:53:02;6.47;;;3.60;;
51312;SDS011;37397;53.226;10.400;2023-04-01T15:55:46;7.78;;;3.60;;
51312;SDS011;37397;53.226;10.400;2023-04-01T16:01:43;7.43;;;3.40;;
51312;SDS011;37397;53.226;10.400;2023-04-01T16:04:26;7.20;;;4.05;;
51312;SDS011;37397;53.226;10.400;2023-04-01T16:10:06;9.35;;;3.80;;
51312;SDS011;37397;53.226;10.400;2023-04-01T16:18:44;8.90;;;3.65;;
51312;SDS011;37397;53.226;10.400;2023-04-01T16:21:21;8.43;;;3.75;;
51312;SDS011;37397;53.226;10.400;2023-04-01T16:24:02;10.35;;;4.45;;
51312;SDS011;37397;53.226;10.400;2023-04-01T16:26:39;9.85;;;4.47;;
51312;SDS011;37397;53.226;10.400;2023-04-01T16:31:52;11.27;;;4.25;;
51312;SDS011;37397;53.226;10.400;2023-04-01T16:34:35;9.38;;;4.03;;
51312;SDS011;37397;53.226;10.400;2023-04-01T16:37:06;8.55;;;4.47;;
51312;SDS011;37397;53.226;10.400;2023-04-01T16:42:40;9.38;;;3.90;;
51312;SDS011;37397;53.226;10.400;2023-04-01T16:48:14;9.15;;;4.05;;
51312;SDS011;37397;53.226;10.400;2023-04-01T16:50:44;9.15;;;4.35;;
51312;SDS011;37397;53.226;10.400;2023-04-01T16:53:21;9.75;;;4.50;;
51312;SDS011;37397;53.226;10.400;2023-04-01T16:56:07;9.73;;;4.50;;
51312;SDS011;37397;53.226;10.400;2023-04-01T16:58:42;9.43;;;4.50;;
51312;SDS011;37397;53.226;10.400;2023-04-01T17:01:29;11.23;;;4.82;;
51312;SDS011;37397;53.226;10.400;2023-04-01T17:04:08;10.93;;;4.55;;
51312;SDS011;37397;53.226;10.400;2023-04-01T17:26:32;9.45;;;4.13;;
51312;SDS011;37397;53.226;10.400;2023-04-01T17:35:02;9.13;;;4.20;;
51312;SDS011;37397;53.226;10.400;2023-04-01T17:37:40;9.50;;;3.72;;
51312;SDS011;37397;53.226;10.400;2023-04-01T17:40:26;8.32;;;3.88;;
51312;SDS011;37397;53.226;10.400;2023-04-01T17:43:10;6.90;;;3.70;;
51312;SDS011;37397;53.226;10.400;2023-04-01T17:45:57;10.68;;;4.68;;
51312;SDS011;37397;53.226;10.400;2023-04-01T17:54:50;10.25;;;4.80;;
51312;SDS011;37397;53.226;10.400;2023-04-01T18:00:16;9.50;;;4.88;;
51312;SDS011;37397;53.226;10.400;2023-04-01T18:03:00;8.48;;;4.50;;
51312;SDS011;37397;53.226;10.400;2023-04-01T18:05:56;10.48;;;4.95;;
51312;SDS011;37397;53.226;10.400;2023-04-01T18:16:48;9.65;;;4.30;;
51312;SDS011;37397;53.226;10.400;2023-04-01T18:19:29;12.27;;;4.80;;
51312;SDS011;37397;53.226;10.400;2023-04-01T18:22:20;11.63;;;4.82;;
51312;SDS011;37397;53.226;10.400;2023-04-01T18:24:59;9.48;;;4.97;;
51312;SDS011;37397;53.226;10.400;2023-04-01T18:27:38;10.45;;;5.13;;
51312;SDS011;37397;53.226;10.400;2023-04-01T18:30:11;11.13;;;5.60;;
51312;SDS011;37397;53.226;10.400;2023-04-01T18:32:50;9.60;;;5.70;;
51312;SDS011;37397;53.226;10.400;2023-04-01T18:35:28;11.02;;;5.47;;
51312;SDS011;37397;53.226;10.400;2023-04-01T18:38:20;13.30;;;5.47;;
51312;SDS011;37397;53.226;10.400;2023-04-01T18:41:07;11.95;;;6.30;;
51312;SDS011;37397;53.226;10.400;2023-04-01T18:52:08;11.75;;;6.60;;
51312;SDS011;37397;53.226;10.400;2023-04-01T18:57:38;11.48;;;6.38;;
51312;SDS011;37397;53.226;10.400;2023-04-01T19:00:14;9.05;;;5.68;;
51312;SDS011;37397;53.226;10.400;2023-04-01T19:02:50;11.77;;;5.88;;
51312;SDS011;37397;53.226;10.400;2023-04-01T19:05:31;11.82;;;5.90;;
51312;SDS011;37397;53.226;10.400;2023-04-01T19:13:53;9.90;;;5.13;;
51312;SDS011;37397;53.226;10.400;2023-04-01T19:19:16;10.15;;;4.80;;
51312;SDS011;37397;53.226;10.400;2023-04-01T19:21:57;8.57;;;4.40;;
51312;SDS011;37397;53.226;10.400;2023-04-01T19:38:39;9.00;;;4.50;;
51312;SDS011;37397;53.226;10.400;2023-04-01T19:41:12;11.02;;;4.70;;
51312;SDS011;37397;53.226;10.400;2023-04-01T19:47:20;7.93;;;4.10;;
51312;SDS011;37397;53.226;10.400;2023-04-01T19:53:13;9.95;;;4.88;;
51312;SDS011;37397;53.226;10.400;2023-04-01T19:58:40;9.80;;;4.78;;
51312;SDS011;37397;53.226;10.400;2023-04-01T20:01:15;9.38;;;4.15;;
51312;SDS011;37397;53.226;10.400;2023-04-01T20:03:55;13.57;;;4.72;;
51312;SDS011;37397;53.226;10.400;2023-04-01T20:06:32;8.02;;;4.10;;
51312;SDS011;37397;53.226;10.400;2023-04-01T20:09:07;7.30;;;4.00;;
51312;SDS011;37397;53.226;10.400;2023-04-01T20:14:44;11.48;;;4.40;;
51312;SDS011;37397;53.226;10.400;2023-04-01T20:17:18;8.95;;;4.22;;
51312;SDS011;37397;53.226;10.400;2023-04-01T20:22:51;9.75;;;4.00;;
51312;SDS011;37397;53.226;10.400;2023-04-01T20:28:11;8.38;;;4.35;;
51312;SDS011;37397;53.226;10.400;2023-04-01T20:33:52;9.38;;;4.55;;
51312;SDS011;37397;53.226;10.400;2023-04-01T20:45:28;8.82;;;3.97;;
51312;SDS011;37397;53.226;10.400;2023-04-01T20:53:35;10.40;;;4.28;;
51312;SDS011;37397;53.226;10.400;2023-04-01T20:59:09;7.25;;;3.60;;
51312;SDS011;37397;53.226;10.400;2023-04-01T21:17:42;9.50;;;3.45;;
51312;SDS011;37397;53.226;10.400;2023-04-01T21:20:42;10.20;;;3.33;;
51312;SDS011;37397;53.226;10.400;2023-04-01T21:23:22;8.85;;;3.40;;
51312;SDS011;37397;53.226;10.400;2023-04-01T21:26:23;8.15;;;3.30;;
51312;SDS011;37397;53.226;10.400;2023-04-01T21:29:11;8.27;;;3.47;;
51312;SDS011;37397;53.226;10.400;2023-04-01T21:34:41;8.60;;;3.38;;
51312;SDS011;37397;53.226;10.400;2023-04-01T21:37:25;8.85;;;3.13;;
51312;SDS011;37397;53.226;10.400;2023-04-01T21:42:51;9.45;;;3.00;;
51312;SDS011;37397;53.226;10.400;2023-04-01T21:45:23;8.23;;;2.63;;
51312;SDS011;37397;53.226;10.400;2023-04-01T21:48:08;8.50;;;2.60;;
51312;SDS011;37397;53.226;10.400;2023-04-01T21:56:04;10.00;;;2.70;;
51312;SDS011;37397;53.226;10.400;2023-04-01T22:01:35;6.88;;;2.40;;
51312;SDS011;37397;53.226;10.400;2023-04-01T22:10:13;8.18;;;2.28;;
51312;SDS011;37397;53.226;10.400;2023-04-01T22:12:59;7.13;;;2.20;;
51312;SDS011;37397;53.226;10.400;2023-04-01T22:15:54;7.18;;;2.33;;
51312;SDS011;37397;53.226;10.400;2023-04-01T22:18:33;8.60;;;2.50;;
51312;SDS011;37397;53.226;10.400;2023-04-01T22:23:59;9.18;;;2.85;;
51312;SDS011;37397;53.226;10.400;2023-04-01T22:26:37;6.82;;;2.65;;
51312;SDS011;37397;53.226;10.400;2023-04-01T22:29:12;7.45;;;2.22;;
51312;SDS011;37397;53.226;10.400;2023-04-01T22:31:52;7.45;;;2.03;;
51312;SDS011;37397;53.226;10.400;2023-04-01T22:34:39;8.13;;;2.60;;
51312;SDS011;37397;53.226;10.400;2023-04-01T22:37:21;5.75;;;2.33;;
51312;SDS011;37397;53.226;10.400;2023-04-01T22:40:08;11.38;;;2.75;;
51312;SDS011;37397;53.226;10.400;2023-04-01T22:42:44;7.85;;;2.42;;
51312;SDS011;37397;53.226;10.400;2023-04-01T22:45:30;9.95;;;2.47;;
51312;SDS011;37397;53.226;10.400;2023-04-01T22:48:15;7.45;;;2.30;;
51312;SDS011;37397;53.226;10.400;2023-04-01T22:56:15;7.03;;;2.45;;
51312;SDS011;37397;53.226;10.400;2023-04-01T22:59:19;7.43;;;2.47;;
51312;SDS011;37397;53.226;10.400;2023-04-01T23:01:46;7.80;;;2.33;;
51312;SDS011;37397;53.226;10.400;2023-04-01T23:04:17;8.07;;;2.40;;
51312;SDS011;37397;53.226;10.400;2023-04-01T23:06:52;7.60;;;2.15;;
51312;SDS011;37397;53.226;10.400;2023-04-01T23:09:25;5.75;;;2.28;;
51312;SDS011;37397;53.226;10.400;2023-04-01T23:14:37;6.50;;;2.10;;
51312;SDS011;37397;53.226;10.400;2023-04-01T23:26:04;8.95;;;2.45;;
51312;SDS011;37397;53.226;10.400;2023-04-01T23:28:40;8.55;;;2.80;;
51312;SDS011;37397;53.226;10.400;2023-04-01T23:33:59;8.93;;;2.45;;
51312;SDS011;37397;53.226;10.400;2023-04-01T23:36:28;7.30;;;2.03;;
51312;SDS011;37397;53.226;10.400;2023-04-01T23:38:57;10.85;;;2.22;;
51312;SDS011;37397;53.226;10.400;2023-04-01T23:41:30;7.13;;;2.10;;
51312;SDS011;37397;53.226;10.400;2023-04-01T23:44:03;8.05;;;2.35;;
51312;SDS011;37397;53.226;10.400;2023-04-01T23:46:33;7.53;;;2.35;;
51312;SDS011;37397;53.226;10.400;2023-04-01T23:49:02;4.20;;;1.83;;
51312;SDS011;37397;53.226;10.400;2023-04-01T23:51:37;6.72;;;2.35;;
51312;SDS011;37397;53.226;10.400;2023-04-01T23:57:18;6.45;;;2.20;;
